createdAt,value
2019-02-16T00:00:43.677Z,71.20
2019-02-16T00:03:14.581Z,71.20
2019-02-16T00:05:43.856Z,71.40
2019-02-16T00:08:13.138Z,71.20
2019-02-16T00:10:42.428Z,71.40
2019-02-16T00:13:12.036Z,71.40
2019-02-16T00:15:41.322Z,71.20
2019-02-16T00:18:10.600Z,71.10
2019-02-16T00:20:39.882Z,71.20
2019-02-16T00:23:09.156Z,71.10
2019-02-16T00:25:38.426Z,71.20
2019-02-16T00:28:07.718Z,71.20
2019-02-16T00:30:37.256Z,71.50
2019-02-16T00:33:06.534Z,71.30
2019-02-16T00:35:35.805Z,71.40
2019-02-16T00:38:05.080Z,71.40
2019-02-16T00:40:34.347Z,71.40
2019-02-16T00:43:03.633Z,71.70
2019-02-16T00:45:32.909Z,71.70
2019-02-16T00:48:02.462Z,71.70
2019-02-16T00:50:32.068Z,71.70
2019-02-16T00:53:01.373Z,71.70
2019-02-16T00:55:30.970Z,71.80
2019-02-16T00:58:00.575Z,71.70
2019-02-16T01:00:30.192Z,71.90
2019-02-16T01:02:59.482Z,71.90
2019-02-16T01:05:28.770Z,71.80
2019-02-16T01:07:58.044Z,71.70
2019-02-16T01:10:27.333Z,71.60
2019-02-16T01:12:56.597Z,71.70
2019-02-16T01:15:25.883Z,71.60
2019-02-16T01:17:55.160Z,71.70
2019-02-16T01:20:24.445Z,71.70
2019-02-16T01:22:53.723Z,71.60
2019-02-16T01:25:22.998Z,71.70
2019-02-16T01:27:53.357Z,71.60
2019-02-16T01:30:22.642Z,71.60
2019-02-16T01:32:51.921Z,71.40
2019-02-16T01:35:21.226Z,71.50
2019-02-16T01:37:50.479Z,71.30
2019-02-16T01:40:19.777Z,71.30
2019-02-16T01:42:49.111Z,71.10
2019-02-16T01:45:18.625Z,71.20
2019-02-16T01:47:47.897Z,71.20
2019-02-16T01:50:17.178Z,71.10
2019-02-16T01:52:46.453Z,71.10
2019-02-16T01:55:15.730Z,71.10
2019-02-16T01:57:45.006Z,71.10
2019-02-16T02:00:14.284Z,71.30
2019-02-16T02:02:43.562Z,71.20
2019-02-16T02:05:12.843Z,71.10
2019-02-16T02:07:42.282Z,71.10
2019-02-16T02:10:11.556Z,71.10
2019-02-16T02:12:41.137Z,70.90
2019-02-16T02:15:11.085Z,71.00
2019-02-16T02:17:40.352Z,71.10
2019-02-16T02:20:09.814Z,71.30
2019-02-16T02:22:39.362Z,71.40
2019-02-16T02:25:10.496Z,71.60
2019-02-16T02:27:39.766Z,71.50
2019-02-16T02:30:10.884Z,71.60
2019-02-16T02:32:40.205Z,71.60
2019-02-16T02:35:09.825Z,71.50
2019-02-16T02:37:39.369Z,71.40
2019-02-16T02:40:08.814Z,71.40
2019-02-16T02:42:39.405Z,71.30
2019-02-16T02:45:10.862Z,71.60
2019-02-16T02:47:40.211Z,71.60
2019-02-16T02:50:09.502Z,71.60
2019-02-16T02:52:38.786Z,71.80
2019-02-16T02:55:08.674Z,72.00
2019-02-16T02:57:37.949Z,72.40
2019-02-16T03:00:09.898Z,72.00
2019-02-16T03:02:39.401Z,72.40
2019-02-16T03:05:10.144Z,72.40
2019-02-16T03:07:39.406Z,72.60
2019-02-16T03:10:08.927Z,72.50
2019-02-16T03:12:38.210Z,72.40
2019-02-16T03:15:07.778Z,72.50
2019-02-16T03:17:37.056Z,72.20
2019-02-16T03:20:06.818Z,72.40
2019-02-16T03:23:07.945Z,72.30
2019-02-16T03:25:37.233Z,72.40
2019-02-16T03:28:24.742Z,72.60
2019-02-16T03:31:29.717Z,72.80
2019-02-16T03:34:37.222Z,72.80
2019-02-16T03:37:26.478Z,72.90
2019-02-16T03:39:55.768Z,72.80
2019-02-16T03:42:25.290Z,72.80
2019-02-16T03:44:54.907Z,73.00
2019-02-16T03:47:24.501Z,73.30
2019-02-16T03:49:53.803Z,73.10
2019-02-16T03:52:23.414Z,73.30
2019-02-16T03:54:53.019Z,73.80
2019-02-16T03:57:22.624Z,74.10
2019-02-16T03:59:51.977Z,74.40
2019-02-16T04:02:21.250Z,74.50
2019-02-16T04:04:50.586Z,74.60
2019-02-16T04:07:19.865Z,74.80
2019-02-16T04:09:49.141Z,74.60
2019-02-16T04:12:18.451Z,75.10
2019-02-16T04:14:47.714Z,75.00
2019-02-16T04:17:17.002Z,75.20
2019-02-16T04:19:47.563Z,75.10
2019-02-16T04:22:24.290Z,75.10
2019-02-16T04:24:48.146Z,74.80
2019-02-16T04:27:17.429Z,74.50
2019-02-16T04:29:46.701Z,74.80
2019-02-16T04:32:15.989Z,74.50
2019-02-16T04:34:45.266Z,75.00
2019-02-16T04:37:14.822Z,75.10
2019-02-16T04:39:44.097Z,74.80
2019-02-16T04:42:13.625Z,74.90
2019-02-16T04:44:42.936Z,75.10
2019-02-16T04:47:12.231Z,74.80
2019-02-16T04:49:41.514Z,74.70
2019-02-16T04:52:10.800Z,74.90
2019-02-16T04:54:40.456Z,74.90
2019-02-16T04:57:09.937Z,75.00
2019-02-16T04:59:39.207Z,75.00
2019-02-16T05:02:08.485Z,75.00
2019-02-16T05:04:38.056Z,75.00
2019-02-16T05:07:07.342Z,75.10
2019-02-16T05:09:36.871Z,75.10
2019-02-16T05:12:06.470Z,74.70
2019-02-16T05:14:35.755Z,74.70
2019-02-16T05:17:05.033Z,74.90
2019-02-16T05:19:34.310Z,75.10
2019-02-16T05:22:03.602Z,75.30
2019-02-16T05:24:32.886Z,75.30
2019-02-16T05:27:02.474Z,75.30
2019-02-16T05:29:32.077Z,75.60
2019-02-16T05:32:01.370Z,75.20
2019-02-16T05:34:30.655Z,75.20
2019-02-16T05:37:00.185Z,75.30
2019-02-16T05:39:29.798Z,75.20
2019-02-16T05:41:59.074Z,75.20
2019-02-16T05:44:28.346Z,75.20
2019-02-16T05:46:57.629Z,75.30
2019-02-16T05:49:26.936Z,75.30
2019-02-16T05:51:56.223Z,75.20
2019-02-16T05:54:25.599Z,75.20
2019-02-16T05:56:55.210Z,75.00
2019-02-16T05:59:24.489Z,74.80
2019-02-16T06:01:54.420Z,74.90
2019-02-16T06:04:24.237Z,74.90
2019-02-16T06:06:53.524Z,74.90
2019-02-16T06:09:23.045Z,74.80
2019-02-16T06:11:52.685Z,74.90
2019-02-16T06:14:21.942Z,75.00
2019-02-16T06:16:51.233Z,75.10
2019-02-16T06:19:20.506Z,75.20
2019-02-16T06:21:49.790Z,75.30
2019-02-16T06:24:19.065Z,75.20
2019-02-16T06:26:48.675Z,75.30
2019-02-16T06:29:18.276Z,75.10
2019-02-16T06:31:47.564Z,75.10
2019-02-16T06:34:18.202Z,75.20
2019-02-16T06:36:47.491Z,75.40
2019-02-16T06:39:16.765Z,75.10
2019-02-16T06:41:46.059Z,75.40
2019-02-16T06:44:15.335Z,75.40
2019-02-16T06:46:44.614Z,75.50
2019-02-16T06:49:14.212Z,75.70
2019-02-16T06:51:43.496Z,75.50
2019-02-16T06:54:12.855Z,75.50
2019-02-16T06:56:43.776Z,75.40
2019-02-16T06:59:13.072Z,75.50
2019-02-16T07:01:42.333Z,75.50
2019-02-16T07:04:11.610Z,75.40
2019-02-16T07:06:40.909Z,75.70
2019-02-16T07:09:10.241Z,75.50
2019-02-16T07:11:39.525Z,75.60
2019-02-16T07:14:08.806Z,75.50
2019-02-16T07:16:39.726Z,75.70
2019-02-16T07:19:10.637Z,75.90
2019-02-16T07:21:39.921Z,76.10
2019-02-16T07:24:09.432Z,76.10
2019-02-16T07:26:38.714Z,76.10
2019-02-16T07:29:08.002Z,75.90
2019-02-16T07:31:37.542Z,75.90
2019-02-16T07:34:06.830Z,75.60
2019-02-16T07:36:36.113Z,75.70
2019-02-16T07:39:07.754Z,76.00
2019-02-16T07:41:37.031Z,76.30
2019-02-16T07:44:24.161Z,76.00
2019-02-16T07:46:58.546Z,75.70
2019-02-16T07:49:38.716Z,75.60
2019-02-16T07:52:09.647Z,75.60
2019-02-16T07:54:49.790Z,75.30
2019-02-16T07:57:21.050Z,75.40
2019-02-16T08:00:01.095Z,75.20
2019-02-16T08:02:33.099Z,75.10
2019-02-16T08:05:06.929Z,74.90
2019-02-16T08:07:37.854Z,74.60
2019-02-16T08:10:21.029Z,73.90
2019-02-16T08:13:03.956Z,73.90
2019-02-16T08:15:40.641Z,73.30
2019-02-16T08:18:11.875Z,73.50
2019-02-16T08:20:42.789Z,73.20
2019-02-16T08:23:13.715Z,73.20
2019-02-16T08:26:01.265Z,72.70
2019-02-16T08:28:32.526Z,72.50
2019-02-16T08:31:03.433Z,72.40
2019-02-16T08:33:46.394Z,71.50
2019-02-16T08:36:20.011Z,70.60
2019-02-16T08:38:53.893Z,70.00
2019-02-16T08:41:24.813Z,69.50
2019-02-16T08:43:58.534Z,68.20
2019-02-16T08:46:35.722Z,67.10
2019-02-16T08:49:09.084Z,66.10
2019-02-16T08:51:45.950Z,65.00
2019-02-16T08:54:16.883Z,64.30
2019-02-16T08:57:04.572Z,63.30
2019-02-16T08:59:35.514Z,63.00
2019-02-16T09:02:06.433Z,61.80
2019-02-16T09:04:37.623Z,62.10
2019-02-16T09:07:08.516Z,60.70
2019-02-16T09:09:42.655Z,60.40
2019-02-16T09:12:19.581Z,61.10
2019-02-16T09:14:53.181Z,60.90
2019-02-16T09:17:24.097Z,60.40
2019-02-16T09:20:11.241Z,59.90
2019-02-16T09:22:57.190Z,59.40
2019-02-16T09:25:31.098Z,58.80
2019-02-16T09:28:07.696Z,58.80
2019-02-16T09:30:44.545Z,59.60
2019-02-16T09:33:15.472Z,59.10
2019-02-16T09:35:52.763Z,58.50
2019-02-16T09:38:30.050Z,58.40
2019-02-16T09:41:19.189Z,58.90
2019-02-16T09:44:08.772Z,57.40
2019-02-16T09:46:45.796Z,59.00
2019-02-16T09:49:19.654Z,58.90
2019-02-16T09:51:53.258Z,58.30
2019-02-16T09:54:36.333Z,58.30
2019-02-16T09:57:19.629Z,57.80
2019-02-16T09:59:50.571Z,58.10
2019-02-16T10:02:21.507Z,58.30
2019-02-16T10:04:52.435Z,58.60
2019-02-16T10:07:26.077Z,58.70
2019-02-16T10:09:57.302Z,58.70
2019-02-16T10:12:34.398Z,59.20
2019-02-16T10:15:21.878Z,59.50
2019-02-16T10:18:09.335Z,58.30
2019-02-16T10:20:49.257Z,57.80
2019-02-16T10:23:32.712Z,58.40
2019-02-16T10:26:09.316Z,58.00
2019-02-16T10:28:52.252Z,58.90
2019-02-16T10:31:26.081Z,58.30
2019-02-16T10:33:57.005Z,58.00
2019-02-16T10:36:37.108Z,58.90
2019-02-16T10:39:11.217Z,59.60
2019-02-16T10:41:42.125Z,59.80
2019-02-16T10:44:16.171Z,59.10
2019-02-16T10:46:47.089Z,58.70
2019-02-16T10:49:18.018Z,59.00
2019-02-16T10:52:00.876Z,59.40
2019-02-16T10:54:47.093Z,58.50
2019-02-16T10:57:27.034Z,57.80
2019-02-16T11:00:00.654Z,58.30
2019-02-16T11:02:34.482Z,58.90
2019-02-16T11:05:09.149Z,58.30
2019-02-16T11:07:49.213Z,57.50
2019-02-16T11:10:25.841Z,56.20
2019-02-16T11:12:56.762Z,56.70
2019-02-16T11:15:33.605Z,56.50
2019-02-16T11:18:04.517Z,57.20
2019-02-16T11:20:35.449Z,56.60
2019-02-16T11:23:06.722Z,56.60
2019-02-16T11:25:37.963Z,56.80
2019-02-16T11:28:11.633Z,57.40
2019-02-16T11:30:45.309Z,57.20
2019-02-16T11:33:16.519Z,56.70
2019-02-16T11:36:04.149Z,57.30
2019-02-16T11:38:35.065Z,57.20
2019-02-16T11:41:22.164Z,55.80
2019-02-16T11:43:53.081Z,55.70
2019-02-16T11:46:26.957Z,54.70
2019-02-16T11:49:10.042Z,54.40
2019-02-16T11:51:43.810Z,54.30
2019-02-16T11:54:23.588Z,55.40
2019-02-16T11:56:57.851Z,55.80
2019-02-16T11:59:28.814Z,52.60
2019-02-16T12:02:00.066Z,53.60
2019-02-16T12:04:30.978Z,53.30
2019-02-16T12:07:14.088Z,52.40
2019-02-16T12:10:00.122Z,52.50
2019-02-16T12:12:31.167Z,53.50
2019-02-16T12:15:02.089Z,54.10
2019-02-16T12:17:37.121Z,53.00
2019-02-16T12:20:13.271Z,52.50
2019-02-16T12:22:47.139Z,53.20
2019-02-16T12:25:33.027Z,54.00
2019-02-16T12:28:06.878Z,52.10
2019-02-16T12:30:54.049Z,53.50
2019-02-16T12:33:43.297Z,53.00
2019-02-16T12:36:21.911Z,53.20
2019-02-16T12:39:04.547Z,54.70
2019-02-16T12:41:34.066Z,53.40
2019-02-16T12:44:21.483Z,54.40
2019-02-16T12:46:55.242Z,54.10
2019-02-16T12:49:26.427Z,53.80
2019-02-16T12:51:57.336Z,54.50
2019-02-16T12:54:34.102Z,54.80
2019-02-16T12:57:05.037Z,53.30
2019-02-16T12:59:38.639Z,53.50
2019-02-16T13:02:09.568Z,53.30
2019-02-16T13:04:40.831Z,53.90
2019-02-16T13:07:20.940Z,53.00
2019-02-16T13:09:51.861Z,54.10
2019-02-16T13:12:25.735Z,53.30
2019-02-16T13:14:58.035Z,53.40
2019-02-16T13:17:45.680Z,52.60
2019-02-16T13:20:22.593Z,53.90
2019-02-16T13:23:02.282Z,53.40
2019-02-16T13:25:48.518Z,54.10
2019-02-16T13:28:36.037Z,54.00
2019-02-16T13:31:25.109Z,52.20
2019-02-16T13:33:56.037Z,52.90
2019-02-16T13:36:42.163Z,51.90
2019-02-16T13:39:22.320Z,52.70
2019-02-16T13:41:53.245Z,52.60
2019-02-16T13:44:30.450Z,53.40
2019-02-16T13:47:10.813Z,53.00
2019-02-16T13:49:47.693Z,53.10
2019-02-16T13:52:30.778Z,52.80
2019-02-16T13:55:04.406Z,53.20
2019-02-16T13:57:51.842Z,53.50
2019-02-16T14:00:26.062Z,53.40
2019-02-16T14:03:12.567Z,53.40
2019-02-16T14:05:46.425Z,53.70
2019-02-16T14:08:34.005Z,52.70
2019-02-16T14:11:17.069Z,52.70
2019-02-16T14:13:50.950Z,52.60
2019-02-16T14:16:30.982Z,53.20
2019-02-16T14:19:00.261Z,52.70
2019-02-16T14:21:29.541Z,51.50
2019-02-16T14:23:59.091Z,51.00
2019-02-16T14:26:28.375Z,51.40
2019-02-16T14:28:57.651Z,51.50
2019-02-16T14:31:28.698Z,52.10
2019-02-16T14:33:57.911Z,51.50
2019-02-16T14:36:27.546Z,51.70
2019-02-16T14:38:58.453Z,51.80
2019-02-16T14:41:27.733Z,51.60
2019-02-16T14:43:57.081Z,52.20
2019-02-16T14:46:26.381Z,51.80
2019-02-16T14:48:55.653Z,52.10
2019-02-16T14:51:24.949Z,53.00
2019-02-16T14:53:54.438Z,53.80
2019-02-16T14:56:23.738Z,54.30
2019-02-16T14:58:53.014Z,55.20
2019-02-16T15:01:22.289Z,55.50
2019-02-16T15:03:51.890Z,56.20
2019-02-16T15:06:21.165Z,56.00
2019-02-16T15:08:50.460Z,55.50
2019-02-16T15:11:19.736Z,55.00
2019-02-16T15:13:49.022Z,56.20
2019-02-16T15:16:18.299Z,55.80
2019-02-16T15:18:48.022Z,55.00
2019-02-16T15:21:17.610Z,54.50
2019-02-16T15:23:46.899Z,54.60
2019-02-16T15:26:16.169Z,55.00
2019-02-16T15:28:45.450Z,54.10
2019-02-16T15:31:15.035Z,54.20
2019-02-16T15:33:44.318Z,54.20
2019-02-16T15:36:23.460Z,54.60
2019-02-16T15:38:45.429Z,54.40
2019-02-16T15:41:14.697Z,54.60
2019-02-16T15:43:44.298Z,54.80
2019-02-16T15:46:13.569Z,54.70
2019-02-16T15:48:43.095Z,54.60
2019-02-16T15:51:12.706Z,55.20
2019-02-16T15:53:41.989Z,55.30
2019-02-16T15:56:11.505Z,55.50
2019-02-16T15:58:40.809Z,55.80
2019-02-16T16:01:10.178Z,54.70
2019-02-16T16:03:39.522Z,55.30
2019-02-16T16:06:08.797Z,55.20
2019-02-16T16:08:39.717Z,55.80
2019-02-16T16:11:10.710Z,55.80
2019-02-16T16:13:57.888Z,58.70
2019-02-16T16:16:47.166Z,60.10
2019-02-16T16:19:34.516Z,56.10
2019-02-16T16:22:11.382Z,57.70
2019-02-16T16:24:57.529Z,59.30
2019-02-16T16:27:28.441Z,60.70
2019-02-16T16:30:02.262Z,62.20
2019-02-16T16:32:51.190Z,62.50
2019-02-16T16:35:22.117Z,62.70
2019-02-16T16:38:10.077Z,62.90
2019-02-16T16:40:59.246Z,63.20
2019-02-16T16:43:33.123Z,64.10
2019-02-16T16:46:21.381Z,64.90
2019-02-16T16:48:58.046Z,66.10
2019-02-16T16:51:29.313Z,65.20
2019-02-16T16:54:00.245Z,65.90
2019-02-16T16:56:48.403Z,66.40
2019-02-16T16:59:24.762Z,65.90
2019-02-16T17:02:13.893Z,67.70
2019-02-16T17:04:50.697Z,68.50
2019-02-16T17:07:27.380Z,68.80
2019-02-16T17:10:13.537Z,69.00
2019-02-16T17:12:50.746Z,69.80
2019-02-16T17:15:33.982Z,69.90
2019-02-16T17:18:07.594Z,70.00
2019-02-16T17:20:47.310Z,69.50
2019-02-16T17:23:30.247Z,69.50
2019-02-16T17:26:04.278Z,69.70
2019-02-16T17:28:35.510Z,70.60
2019-02-16T17:31:09.153Z,70.50
2019-02-16T17:33:48.894Z,71.00
2019-02-16T17:36:34.772Z,71.20
2019-02-16T17:39:12.714Z,71.80
2019-02-16T17:41:43.638Z,71.70
2019-02-16T17:44:32.645Z,71.50
2019-02-16T17:47:06.277Z,72.30
2019-02-16T17:49:40.135Z,72.20
2019-02-16T17:52:13.747Z,72.40
2019-02-16T17:54:44.742Z,73.00
2019-02-16T17:57:24.926Z,72.40
2019-02-16T17:59:59.149Z,73.30
2019-02-16T18:02:47.126Z,73.30
2019-02-16T18:05:21.001Z,73.10
2019-02-16T18:07:54.640Z,73.20
2019-02-16T18:10:37.933Z,73.70
2019-02-16T18:13:09.206Z,74.10
2019-02-16T18:15:40.146Z,74.40
2019-02-16T18:18:20.083Z,74.30
2019-02-16T18:20:51.338Z,74.50
2019-02-16T18:23:28.294Z,75.10
2019-02-16T18:26:15.470Z,74.70
2019-02-16T18:29:02.932Z,74.80
2019-02-16T18:31:43.020Z,74.50
2019-02-16T18:34:14.263Z,75.10
2019-02-16T18:36:48.087Z,75.70
2019-02-16T18:39:25.303Z,75.50
2019-02-16T18:41:59.464Z,75.30
2019-02-16T18:44:33.690Z,75.20
2019-02-16T18:47:04.603Z,75.00
2019-02-16T18:49:48.380Z,75.40
2019-02-16T18:52:25.025Z,76.20
2019-02-16T18:55:12.478Z,76.40
2019-02-16T18:57:52.617Z,76.80
2019-02-16T19:00:23.563Z,77.10
2019-02-16T19:03:00.702Z,77.20
2019-02-16T19:05:37.518Z,77.50
2019-02-16T19:08:10.979Z,77.50
2019-02-16T19:10:45.042Z,77.50
2019-02-16T19:13:18.664Z,77.90
2019-02-16T19:16:06.137Z,78.00
2019-02-16T19:18:39.765Z,77.60
2019-02-16T19:21:13.237Z,77.60
2019-02-16T19:23:53.627Z,77.50
2019-02-16T19:26:24.865Z,77.50
2019-02-16T19:29:12.607Z,77.50
2019-02-16T19:31:43.616Z,77.60
2019-02-16T19:34:32.638Z,77.90
2019-02-16T19:37:09.659Z,78.10
2019-02-16T19:39:43.309Z,78.20
2019-02-16T19:42:17.636Z,78.90
2019-02-16T19:44:51.289Z,78.90
2019-02-16T19:47:25.438Z,78.70
2019-02-16T19:49:59.035Z,78.90
2019-02-16T19:52:33.245Z,78.90
2019-02-16T19:55:23.192Z,78.70
2019-02-16T19:57:56.705Z,78.90
2019-02-16T20:00:27.982Z,79.50
2019-02-16T20:03:07.765Z,79.90
2019-02-16T20:05:38.697Z,79.60
2019-02-16T20:08:18.778Z,80.10
2019-02-16T20:10:49.795Z,80.00
2019-02-16T20:13:23.663Z,80.10
2019-02-16T20:15:57.309Z,80.30
2019-02-16T20:18:28.241Z,80.60
2019-02-16T20:21:02.426Z,80.50
2019-02-16T20:23:33.351Z,80.90
2019-02-16T20:26:04.332Z,80.90
2019-02-16T20:28:35.270Z,81.10
2019-02-16T20:31:06.207Z,81.40
2019-02-16T20:33:37.130Z,81.50
2019-02-16T20:36:20.346Z,81.50
2019-02-16T20:38:51.279Z,81.30
2019-02-16T20:41:38.839Z,81.50
2019-02-16T20:44:12.429Z,81.70
2019-02-16T20:46:49.401Z,81.80
2019-02-16T20:49:32.619Z,81.90
2019-02-16T20:52:03.871Z,81.90
2019-02-16T20:54:46.807Z,81.90
2019-02-16T20:57:17.737Z,81.80
2019-02-16T21:00:00.856Z,81.80
2019-02-16T21:02:32.858Z,82.10
2019-02-16T21:05:06.868Z,82.00
2019-02-16T21:07:43.721Z,82.10
2019-02-16T21:10:17.583Z,82.00
2019-02-16T21:13:00.793Z,82.00
2019-02-16T21:15:31.728Z,81.70
2019-02-16T21:18:02.649Z,81.80
2019-02-16T21:20:45.513Z,82.20
2019-02-16T21:23:19.582Z,82.30
2019-02-16T21:26:07.021Z,81.90
2019-02-16T21:28:46.835Z,82.10
2019-02-16T21:31:23.656Z,82.20
2019-02-16T21:33:57.494Z,82.60
2019-02-16T21:36:30.179Z,82.40
2019-02-16T21:39:17.552Z,82.50
2019-02-16T21:42:06.948Z,82.40
2019-02-16T21:44:37.882Z,82.70
2019-02-16T21:47:26.689Z,83.30
2019-02-16T21:49:57.602Z,83.30
2019-02-16T21:52:31.290Z,83.10
2019-02-16T21:55:06.316Z,83.10
2019-02-16T21:57:39.675Z,83.00
2019-02-16T22:00:27.758Z,82.90
2019-02-16T22:02:58.686Z,83.20
2019-02-16T22:05:33.530Z,83.70
2019-02-16T22:08:14.041Z,83.90
2019-02-16T22:11:00.069Z,83.80
2019-02-16T22:13:29.357Z,83.70
2019-02-16T22:15:59.615Z,83.90
2019-02-16T22:18:29.262Z,83.80
2019-02-16T22:20:58.558Z,83.80
2019-02-16T22:23:29.100Z,83.70
2019-02-16T22:25:58.693Z,83.70
2019-02-16T22:28:31.046Z,83.50
2019-02-16T22:30:59.127Z,83.30
2019-02-16T22:33:28.417Z,83.30
2019-02-16T22:35:57.697Z,83.30
2019-02-16T22:38:26.986Z,83.00
2019-02-16T22:40:56.271Z,83.00
2019-02-16T22:43:25.590Z,83.60
2019-02-16T22:45:54.845Z,84.00
2019-02-16T22:48:25.221Z,84.40
2019-02-16T22:50:54.498Z,84.40
2019-02-16T22:53:23.804Z,84.70
2019-02-16T22:55:53.213Z,84.90
2019-02-16T22:58:28.766Z,84.80
2019-02-16T23:00:54.402Z,84.60
2019-02-16T23:03:24.019Z,84.60
2019-02-16T23:05:53.642Z,84.50
2019-02-16T23:08:23.088Z,84.80
2019-02-16T23:10:52.808Z,85.00
2019-02-16T23:13:22.116Z,84.90
2019-02-16T23:15:51.418Z,85.40
2019-02-16T23:18:20.719Z,86.00
2019-02-16T23:20:50.286Z,86.00
2019-02-16T23:23:19.574Z,85.80
2019-02-16T23:25:48.858Z,85.80
2019-02-16T23:28:18.150Z,85.90
2019-02-16T23:30:47.440Z,85.80
2019-02-16T23:33:16.730Z,85.90
2019-02-16T23:35:46.013Z,85.50
2019-02-16T23:38:15.301Z,85.50
2019-02-16T23:40:44.589Z,85.40
2019-02-16T23:43:14.193Z,85.50
2019-02-16T23:45:43.857Z,85.50
2019-02-16T23:48:13.145Z,85.40
2019-02-16T23:50:42.427Z,85.50
2019-02-16T23:53:11.731Z,85.70
2019-02-16T23:55:41.116Z,85.50
2019-02-16T23:58:10.373Z,86.00
